sensor_id;sensor_type;location;lat;lon;timestamp;temperature;humidity
20735;DHT22;10528;52.124;5.196;2022-07-06T00:00:06;14.30;99.90
20735;DHT22;10528;52.124;5.196;2022-07-06T00:02:33;14.30;99.90
20735;DHT22;10528;52.124;5.196;2022-07-06T00:05:00;14.20;99.90
20735;DHT22;10528;52.124;5.196;2022-07-06T00:07:27;14.20;99.90
20735;DHT22;10528;52.124;5.196;2022-07-06T00:09:54;14.20;99.90
20735;DHT22;10528;52.124;5.196;2022-07-06T00:12:21;14.20;99.90
20735;DHT22;10528;52.124;5.196;2022-07-06T00:14:47;14.10;99.90
20735;DHT22;10528;52.124;5.196;2022-07-06T00:17:14;14.10;99.90
20735;DHT22;10528;52.124;5.196;2022-07-06T00:19:41;14.00;99.90
20735;DHT22;10528;52.124;5.196;2022-07-06T00:22:08;13.90;99.90
20735;DHT22;10528;52.124;5.196;2022-07-06T00:24:35;13.80;99.90
20735;DHT22;10528;52.124;5.196;2022-07-06T00:27:02;13.80;99.90
20735;DHT22;10528;52.124;5.196;2022-07-06T00:29:30;13.70;99.90
20735;DHT22;10528;52.124;5.196;2022-07-06T00:31:57;13.60;99.90
20735;DHT22;10528;52.124;5.196;2022-07-06T00:34:24;13.70;99.90
20735;DHT22;10528;52.124;5.196;2022-07-06T00:36:51;13.60;99.90
20735;DHT22;10528;52.124;5.196;2022-07-06T00:39:18;13.50;99.90
20735;DHT22;10528;52.124;5.196;2022-07-06T00:41:45;13.40;99.90
20735;DHT22;10528;52.124;5.196;2022-07-06T00:44:12;13.40;99.90
20735;DHT22;10528;52.124;5.196;2022-07-06T00:46:39;13.40;99.90
20735;DHT22;10528;52.124;5.196;2022-07-06T00:49:06;13.40;99.90
20735;DHT22;10528;52.124;5.196;2022-07-06T00:51:53;13.40;99.90
20735;DHT22;10528;52.124;5.196;2022-07-06T00:54:21;13.40;99.90
20735;DHT22;10528;52.124;5.196;2022-07-06T00:56:48;13.30;99.90
20735;DHT22;10528;52.124;5.196;2022-07-06T00:59:15;13.30;99.90
20735;DHT22;10528;52.124;5.196;2022-07-06T01:01:42;13.30;99.90
20735;DHT22;10528;52.124;5.196;2022-07-06T01:04:09;13.30;99.90
20735;DHT22;10528;52.124;5.196;2022-07-06T01:06:36;13.30;99.90
20735;DHT22;10528;52.124;5.196;2022-07-06T01:09:04;13.30;99.90
20735;DHT22;10528;52.124;5.196;2022-07-06T01:11:31;13.30;99.90
20735;DHT22;10528;52.124;5.196;2022-07-06T01:14:00;13.30;99.90
20735;DHT22;10528;52.124;5.196;2022-07-06T01:16:27;13.30;99.90
20735;DHT22;10528;52.124;5.196;2022-07-06T01:18:54;13.20;99.90
20735;DHT22;10528;52.124;5.196;2022-07-06T01:21:21;13.10;99.90
20735;DHT22;10528;52.124;5.196;2022-07-06T01:23:48;13.10;99.90
20735;DHT22;10528;52.124;5.196;2022-07-06T01:26:17;13.10;99.90
20735;DHT22;10528;52.124;5.196;2022-07-06T01:28:50;13.10;99.90
20735;DHT22;10528;52.124;5.196;2022-07-06T01:31:21;13.10;99.90
20735;DHT22;10528;52.124;5.196;2022-07-06T01:33:51;13.10;99.90
20735;DHT22;10528;52.124;5.196;2022-07-06T01:36:20;13.10;99.90
20735;DHT22;10528;52.124;5.196;2022-07-06T01:38:55;13.20;99.90
20735;DHT22;10528;52.124;5.196;2022-07-06T01:41:25;13.20;99.90
20735;DHT22;10528;52.124;5.196;2022-07-06T01:43:52;13.30;99.90
20735;DHT22;10528;52.124;5.196;2022-07-06T01:46:20;13.20;99.90
20735;DHT22;10528;52.124;5.196;2022-07-06T01:48:47;13.20;99.90
20735;DHT22;10528;52.124;5.196;2022-07-06T01:51:14;13.20;99.90
20735;DHT22;10528;52.124;5.196;2022-07-06T01:53:44;13.20;99.90
20735;DHT22;10528;52.124;5.196;2022-07-06T01:56:12;13.20;99.90
20735;DHT22;10528;52.124;5.196;2022-07-06T01:58:39;13.10;99.90
20735;DHT22;10528;52.124;5.196;2022-07-06T02:01:12;13.10;99.90
20735;DHT22;10528;52.124;5.196;2022-07-06T02:03:44;13.10;99.90
20735;DHT22;10528;52.124;5.196;2022-07-06T02:06:12;13.20;99.90
20735;DHT22;10528;52.124;5.196;2022-07-06T02:08:41;13.20;99.90
20735;DHT22;10528;52.124;5.196;2022-07-06T02:11:09;13.20;99.90
20735;DHT22;10528;52.124;5.196;2022-07-06T02:13:39;13.20;99.90
20735;DHT22;10528;52.124;5.196;2022-07-06T02:16:09;13.30;99.90
20735;DHT22;10528;52.124;5.196;2022-07-06T02:18:36;13.30;99.90
20735;DHT22;10528;52.124;5.196;2022-07-06T02:21:04;13.40;99.90
20735;DHT22;10528;52.124;5.196;2022-07-06T02:23:31;13.50;99.90
20735;DHT22;10528;52.124;5.196;2022-07-06T02:25:59;13.50;99.90
20735;DHT22;10528;52.124;5.196;2022-07-06T02:28:26;13.50;99.90
20735;DHT22;10528;52.124;5.196;2022-07-06T02:30:53;13.60;99.90
20735;DHT22;10528;52.124;5.196;2022-07-06T02:33:20;13.60;99.90
20735;DHT22;10528;52.124;5.196;2022-07-06T02:35:47;13.60;99.90
20735;DHT22;10528;52.124;5.196;2022-07-06T02:38:15;13.70;99.90
20735;DHT22;10528;52.124;5.196;2022-07-06T02:40:42;13.70;99.90
20735;DHT22;10528;52.124;5.196;2022-07-06T02:43:09;13.70;99.90
20735;DHT22;10528;52.124;5.196;2022-07-06T02:45:38;13.80;99.90
20735;DHT22;10528;52.124;5.196;2022-07-06T02:48:05;13.80;99.90
20735;DHT22;10528;52.124;5.196;2022-07-06T02:50:33;13.90;99.90
20735;DHT22;10528;52.124;5.196;2022-07-06T02:53:00;13.80;99.90
20735;DHT22;10528;52.124;5.196;2022-07-06T02:55:29;13.90;99.90
20735;DHT22;10528;52.124;5.196;2022-07-06T02:57:56;13.90;99.90
20735;DHT22;10528;52.124;5.196;2022-07-06T03:00:23;13.90;99.90
20735;DHT22;10528;52.124;5.196;2022-07-06T03:02:51;13.90;99.90
20735;DHT22;10528;52.124;5.196;2022-07-06T03:05:19;13.90;99.90
20735;DHT22;10528;52.124;5.196;2022-07-06T03:07:46;14.00;99.90
20735;DHT22;10528;52.124;5.196;2022-07-06T03:10:14;14.00;99.90
20735;DHT22;10528;52.124;5.196;2022-07-06T03:12:41;14.00;99.90
20735;DHT22;10528;52.124;5.196;2022-07-06T03:15:08;14.00;99.90
20735;DHT22;10528;52.124;5.196;2022-07-06T03:17:41;14.00;99.90
20735;DHT22;10528;52.124;5.196;2022-07-06T03:20:09;14.10;99.90
20735;DHT22;10528;52.124;5.196;2022-07-06T03:22:38;14.20;99.90
20735;DHT22;10528;52.124;5.196;2022-07-06T03:25:05;14.20;99.90
20735;DHT22;10528;52.124;5.196;2022-07-06T03:27:34;14.20;99.90
20735;DHT22;10528;52.124;5.196;2022-07-06T03:30:03;14.20;99.90
20735;DHT22;10528;52.124;5.196;2022-07-06T03:32:33;14.20;99.90
20735;DHT22;10528;52.124;5.196;2022-07-06T03:35:02;14.10;99.90
20735;DHT22;10528;52.124;5.196;2022-07-06T03:37:31;14.10;99.90
20735;DHT22;10528;52.124;5.196;2022-07-06T03:39:58;14.00;99.90
20735;DHT22;10528;52.124;5.196;2022-07-06T03:42:25;14.00;99.90
20735;DHT22;10528;52.124;5.196;2022-07-06T03:44:52;13.90;99.90
20735;DHT22;10528;52.124;5.196;2022-07-06T03:47:19;13.90;99.90
20735;DHT22;10528;52.124;5.196;2022-07-06T03:49:46;13.80;99.90
20735;DHT22;10528;52.124;5.196;2022-07-06T03:52:13;13.80;99.90
20735;DHT22;10528;52.124;5.196;2022-07-06T03:54:47;13.80;99.90
20735;DHT22;10528;52.124;5.196;2022-07-06T03:57:19;14.00;99.90
20735;DHT22;10528;52.124;5.196;2022-07-06T03:59:46;14.00;99.90
20735;DHT22;10528;52.124;5.196;2022-07-06T04:02:13;14.00;99.90
20735;DHT22;10528;52.124;5.196;2022-07-06T04:04:41;13.80;99.90
20735;DHT22;10528;52.124;5.196;2022-07-06T04:07:08;13.70;99.90
20735;DHT22;10528;52.124;5.196;2022-07-06T04:09:36;13.70;99.90
20735;DHT22;10528;52.124;5.196;2022-07-06T04:12:03;13.80;99.90
20735;DHT22;10528;52.124;5.196;2022-07-06T04:14:30;13.90;99.90
20735;DHT22;10528;52.124;5.196;2022-07-06T04:16:57;14.10;99.90
20735;DHT22;10528;52.124;5.196;2022-07-06T04:19:25;14.10;99.90
20735;DHT22;10528;52.124;5.196;2022-07-06T04:21:52;14.00;99.90
20735;DHT22;10528;52.124;5.196;2022-07-06T04:24:19;14.00;99.90
20735;DHT22;10528;52.124;5.196;2022-07-06T04:26:46;14.00;99.90
20735;DHT22;10528;52.124;5.196;2022-07-06T04:29:13;14.00;99.90
20735;DHT22;10528;52.124;5.196;2022-07-06T04:31:40;14.00;99.90
20735;DHT22;10528;52.124;5.196;2022-07-06T04:34:07;13.90;99.90
20735;DHT22;10528;52.124;5.196;2022-07-06T04:36:34;14.00;99.90
20735;DHT22;10528;52.124;5.196;2022-07-06T04:39:02;14.00;99.90
20735;DHT22;10528;52.124;5.196;2022-07-06T04:41:29;14.10;99.90
20735;DHT22;10528;52.124;5.196;2022-07-06T04:43:56;14.20;99.90
20735;DHT22;10528;52.124;5.196;2022-07-06T04:46:23;14.20;99.90
20735;DHT22;10528;52.124;5.196;2022-07-06T04:48:52;14.20;99.90
20735;DHT22;10528;52.124;5.196;2022-07-06T04:51:24;14.30;99.90
20735;DHT22;10528;52.124;5.196;2022-07-06T04:53:51;14.40;99.90
20735;DHT22;10528;52.124;5.196;2022-07-06T04:56:19;14.40;99.90
20735;DHT22;10528;52.124;5.196;2022-07-06T04:58:47;14.40;99.90
20735;DHT22;10528;52.124;5.196;2022-07-06T05:01:16;14.50;99.90
20735;DHT22;10528;52.124;5.196;2022-07-06T05:03:43;14.60;99.90
20735;DHT22;10528;52.124;5.196;2022-07-06T05:06:12;14.60;99.90
20735;DHT22;10528;52.124;5.196;2022-07-06T05:08:39;14.70;99.90
20735;DHT22;10528;52.124;5.196;2022-07-06T05:11:06;14.70;99.90
20735;DHT22;10528;52.124;5.196;2022-07-06T05:13:34;14.70;99.90
20735;DHT22;10528;52.124;5.196;2022-07-06T05:16:01;14.90;99.90
20735;DHT22;10528;52.124;5.196;2022-07-06T05:18:28;15.10;99.90
20735;DHT22;10528;52.124;5.196;2022-07-06T05:20:57;15.20;99.90
20735;DHT22;10528;52.124;5.196;2022-07-06T05:23:24;15.40;99.90
20735;DHT22;10528;52.124;5.196;2022-07-06T05:25:53;15.60;99.90
20735;DHT22;10528;52.124;5.196;2022-07-06T05:28:20;15.70;99.90
20735;DHT22;10528;52.124;5.196;2022-07-06T05:30:48;16.10;99.90
20735;DHT22;10528;52.124;5.196;2022-07-06T05:33:15;16.50;99.90
20735;DHT22;10528;52.124;5.196;2022-07-06T05:35:43;16.80;99.90
20735;DHT22;10528;52.124;5.196;2022-07-06T05:38:23;16.80;99.90
20735;DHT22;10528;52.124;5.196;2022-07-06T05:40:51;16.70;99.90
20735;DHT22;10528;52.124;5.196;2022-07-06T05:43:18;16.70;99.90
20735;DHT22;10528;52.124;5.196;2022-07-06T05:45:45;16.70;99.90
20735;DHT22;10528;52.124;5.196;2022-07-06T05:48:14;16.80;99.90
20735;DHT22;10528;52.124;5.196;2022-07-06T05:51:00;17.30;99.90
20735;DHT22;10528;52.124;5.196;2022-07-06T05:53:27;19.10;99.90
20735;DHT22;10528;52.124;5.196;2022-07-06T05:55:56;20.50;99.90
20735;DHT22;10528;52.124;5.196;2022-07-06T05:58:23;21.60;99.90
20735;DHT22;10528;52.124;5.196;2022-07-06T06:00:53;21.30;99.90
20735;DHT22;10528;52.124;5.196;2022-07-06T06:03:20;20.90;99.90
20735;DHT22;10528;52.124;5.196;2022-07-06T06:05:48;21.40;99.90
20735;DHT22;10528;52.124;5.196;2022-07-06T06:08:17;21.70;99.90
20735;DHT22;10528;52.124;5.196;2022-07-06T06:10:45;21.40;99.90
20735;DHT22;10528;52.124;5.196;2022-07-06T06:13:16;20.90;99.90
20735;DHT22;10528;52.124;5.196;2022-07-06T06:15:43;20.70;99.90
20735;DHT22;10528;52.124;5.196;2022-07-06T06:18:10;21.50;99.90
20735;DHT22;10528;52.124;5.196;2022-07-06T06:20:37;22.30;99.90
20735;DHT22;10528;52.124;5.196;2022-07-06T06:23:04;22.50;99.90
20735;DHT22;10528;52.124;5.196;2022-07-06T06:25:33;22.40;99.90
20735;DHT22;10528;52.124;5.196;2022-07-06T06:28:06;22.90;99.90
20735;DHT22;10528;52.124;5.196;2022-07-06T06:30:36;23.50;99.90
20735;DHT22;10528;52.124;5.196;2022-07-06T06:33:20;23.30;99.90
20735;DHT22;10528;52.124;5.196;2022-07-06T06:35:50;23.60;99.90
20735;DHT22;10528;52.124;5.196;2022-07-06T06:38:19;24.00;99.90
20735;DHT22;10528;52.124;5.196;2022-07-06T06:40:48;24.10;99.90
20735;DHT22;10528;52.124;5.196;2022-07-06T06:43:15;23.90;99.90
20735;DHT22;10528;52.124;5.196;2022-07-06T06:45:50;23.50;99.90
20735;DHT22;10528;52.124;5.196;2022-07-06T06:48:17;23.00;99.90
20735;DHT22;10528;52.124;5.196;2022-07-06T06:50:45;22.80;99.90
20735;DHT22;10528;52.124;5.196;2022-07-06T06:53:13;22.90;99.90
20735;DHT22;10528;52.124;5.196;2022-07-06T06:55:40;23.20;99.90
20735;DHT22;10528;52.124;5.196;2022-07-06T06:58:07;23.40;99.90
20735;DHT22;10528;52.124;5.196;2022-07-06T07:00:34;23.20;99.90
20735;DHT22;10528;52.124;5.196;2022-07-06T07:03:01;22.70;99.90
20735;DHT22;10528;52.124;5.196;2022-07-06T07:05:27;22.10;99.90
20735;DHT22;10528;52.124;5.196;2022-07-06T07:07:55;22.60;99.90
20735;DHT22;10528;52.124;5.196;2022-07-06T07:10:31;22.20;99.90
20735;DHT22;10528;52.124;5.196;2022-07-06T07:12:59;22.60;99.90
20735;DHT22;10528;52.124;5.196;2022-07-06T07:15:25;21.90;99.90
20735;DHT22;10528;52.124;5.196;2022-07-06T07:17:53;21.20;99.90
20735;DHT22;10528;52.124;5.196;2022-07-06T07:20:20;20.80;99.90
20735;DHT22;10528;52.124;5.196;2022-07-06T07:22:47;21.40;99.90
20735;DHT22;10528;52.124;5.196;2022-07-06T07:25:14;21.90;99.90
20735;DHT22;10528;52.124;5.196;2022-07-06T07:27:41;22.20;99.90
20735;DHT22;10528;52.124;5.196;2022-07-06T07:30:08;22.70;99.90
20735;DHT22;10528;52.124;5.196;2022-07-06T07:32:35;22.80;99.90
20735;DHT22;10528;52.124;5.196;2022-07-06T07:35:03;22.80;99.90
20735;DHT22;10528;52.124;5.196;2022-07-06T07:37:30;22.80;99.90
20735;DHT22;10528;52.124;5.196;2022-07-06T07:39:57;22.40;99.90
20735;DHT22;10528;52.124;5.196;2022-07-06T07:42:25;21.80;99.90
20735;DHT22;10528;52.124;5.196;2022-07-06T07:44:52;21.40;99.90
20735;DHT22;10528;52.124;5.196;2022-07-06T07:47:19;21.90;99.90
20735;DHT22;10528;52.124;5.196;2022-07-06T07:49:46;22.30;99.90
20735;DHT22;10528;52.124;5.196;2022-07-06T07:52:13;22.50;99.90
20735;DHT22;10528;52.124;5.196;2022-07-06T07:54:40;22.50;99.90
20735;DHT22;10528;52.124;5.196;2022-07-06T07:57:13;22.80;99.90
20735;DHT22;10528;52.124;5.196;2022-07-06T07:59:40;23.30;99.90
20735;DHT22;10528;52.124;5.196;2022-07-06T08:02:08;23.40;99.90
20735;DHT22;10528;52.124;5.196;2022-07-06T08:04:35;23.40;99.90
20735;DHT22;10528;52.124;5.196;2022-07-06T08:07:03;23.10;99.90
20735;DHT22;10528;52.124;5.196;2022-07-06T08:09:30;23.10;99.90
20735;DHT22;10528;52.124;5.196;2022-07-06T08:11:56;22.70;99.90
20735;DHT22;10528;52.124;5.196;2022-07-06T08:14:25;22.90;99.90
20735;DHT22;10528;52.124;5.196;2022-07-06T08:16:52;23.00;99.00
20735;DHT22;10528;52.124;5.196;2022-07-06T08:19:19;23.30;99.90
20735;DHT22;10528;52.124;5.196;2022-07-06T08:21:46;23.40;99.90
20735;DHT22;10528;52.124;5.196;2022-07-06T08:24:13;23.30;99.90
20735;DHT22;10528;52.124;5.196;2022-07-06T08:26:40;23.10;99.70
20735;DHT22;10528;52.124;5.196;2022-07-06T08:29:07;23.00;98.00
20735;DHT22;10528;52.124;5.196;2022-07-06T08:31:34;22.70;98.30
20735;DHT22;10528;52.124;5.196;2022-07-06T08:34:21;22.90;99.10
20735;DHT22;10528;52.124;5.196;2022-07-06T08:36:49;22.70;97.70
20735;DHT22;10528;52.124;5.196;2022-07-06T08:39:16;23.00;99.70
20735;DHT22;10528;52.124;5.196;2022-07-06T08:41:44;23.20;99.60
20735;DHT22;10528;52.124;5.196;2022-07-06T08:44:17;22.90;97.60
20735;DHT22;10528;52.124;5.196;2022-07-06T08:46:45;22.90;97.60
20735;DHT22;10528;52.124;5.196;2022-07-06T08:49:14;23.00;99.90
20735;DHT22;10528;52.124;5.196;2022-07-06T08:51:44;23.20;99.90
20735;DHT22;10528;52.124;5.196;2022-07-06T08:54:12;23.20;99.30
20735;DHT22;10528;52.124;5.196;2022-07-06T08:56:40;23.10;99.90
20735;DHT22;10528;52.124;5.196;2022-07-06T08:59:14;23.10;99.80
20735;DHT22;10528;52.124;5.196;2022-07-06T09:01:44;23.10;99.40
20735;DHT22;10528;52.124;5.196;2022-07-06T09:04:15;23.00;99.90
20735;DHT22;10528;52.124;5.196;2022-07-06T09:06:46;22.90;98.50
20735;DHT22;10528;52.124;5.196;2022-07-06T09:09:19;22.70;99.60
20735;DHT22;10528;52.124;5.196;2022-07-06T09:11:48;22.60;98.30
20735;DHT22;10528;52.124;5.196;2022-07-06T09:14:16;22.60;97.40
20735;DHT22;10528;52.124;5.196;2022-07-06T09:16:43;22.70;99.30
20735;DHT22;10528;52.124;5.196;2022-07-06T09:19:12;22.70;99.00
20735;DHT22;10528;52.124;5.196;2022-07-06T09:21:40;22.90;99.90
20735;DHT22;10528;52.124;5.196;2022-07-06T09:24:10;23.10;99.90
20735;DHT22;10528;52.124;5.196;2022-07-06T09:26:39;22.90;99.60
20735;DHT22;10528;52.124;5.196;2022-07-06T09:29:08;22.70;99.90
20735;DHT22;10528;52.124;5.196;2022-07-06T09:31:35;22.60;99.90
20735;DHT22;10528;52.124;5.196;2022-07-06T09:34:06;22.60;99.10
20735;DHT22;10528;52.124;5.196;2022-07-06T09:36:37;22.80;99.90
20735;DHT22;10528;52.124;5.196;2022-07-06T09:41:53;23.00;99.40
20735;DHT22;10528;52.124;5.196;2022-07-06T09:44:32;23.10;99.70
20735;DHT22;10528;52.124;5.196;2022-07-06T09:47:02;22.70;97.70
20735;DHT22;10528;52.124;5.196;2022-07-06T09:49:30;22.50;97.60
20735;DHT22;10528;52.124;5.196;2022-07-06T09:52:01;22.30;99.20
20735;DHT22;10528;52.124;5.196;2022-07-06T09:54:30;22.50;99.90
20735;DHT22;10528;52.124;5.196;2022-07-06T09:56:58;22.60;99.90
20735;DHT22;10528;52.124;5.196;2022-07-06T09:59:34;22.50;99.90
20735;DHT22;10528;52.124;5.196;2022-07-06T10:02:06;22.50;99.90
20735;DHT22;10528;52.124;5.196;2022-07-06T10:04:34;22.30;99.90
20735;DHT22;10528;52.124;5.196;2022-07-06T10:07:02;22.30;99.90
20735;DHT22;10528;52.124;5.196;2022-07-06T10:09:30;22.30;99.90
20735;DHT22;10528;52.124;5.196;2022-07-06T10:12:01;22.50;99.90
20735;DHT22;10528;52.124;5.196;2022-07-06T10:14:32;22.80;99.90
20735;DHT22;10528;52.124;5.196;2022-07-06T10:17:01;22.90;99.90
20735;DHT22;10528;52.124;5.196;2022-07-06T10:19:32;22.90;99.90
20735;DHT22;10528;52.124;5.196;2022-07-06T10:22:01;22.90;99.90
20735;DHT22;10528;52.124;5.196;2022-07-06T10:24:29;23.00;99.60
20735;DHT22;10528;52.124;5.196;2022-07-06T10:27:00;22.90;98.50
20735;DHT22;10528;52.124;5.196;2022-07-06T10:29:30;22.70;98.50
20735;DHT22;10528;52.124;5.196;2022-07-06T10:31:57;22.80;99.90
20735;DHT22;10528;52.124;5.196;2022-07-06T10:34:25;23.00;99.90
20735;DHT22;10528;52.124;5.196;2022-07-06T10:36:53;22.80;98.80
20735;DHT22;10528;52.124;5.196;2022-07-06T10:39:38;22.50;99.90
20735;DHT22;10528;52.124;5.196;2022-07-06T10:42:39;22.50;99.90
20735;DHT22;10528;52.124;5.196;2022-07-06T10:45:12;22.60;99.90
20735;DHT22;10528;52.124;5.196;2022-07-06T10:47:41;22.70;99.90
20735;DHT22;10528;52.124;5.196;2022-07-06T10:50:09;22.90;99.30
20735;DHT22;10528;52.124;5.196;2022-07-06T10:52:59;22.70;99.60
20735;DHT22;10528;52.124;5.196;2022-07-06T10:55:35;23.00;99.70
20735;DHT22;10528;52.124;5.196;2022-07-06T10:58:04;23.10;98.90
20735;DHT22;10528;52.124;5.196;2022-07-06T11:00:51;23.00;99.40
20735;DHT22;10528;52.124;5.196;2022-07-06T11:03:32;23.00;99.80
20735;DHT22;10528;52.124;5.196;2022-07-06T11:08:50;23.00;99.90
20735;DHT22;10528;52.124;5.196;2022-07-06T11:14:16;23.30;99.90
20735;DHT22;10528;52.124;5.196;2022-07-06T11:19:19;23.10;99.60
20735;DHT22;10528;52.124;5.196;2022-07-06T11:21:57;23.10;98.70
20735;DHT22;10528;52.124;5.196;2022-07-06T11:24:34;23.10;99.80
20735;DHT22;10528;52.124;5.196;2022-07-06T11:27:06;23.20;99.40
20735;DHT22;10528;52.124;5.196;2022-07-06T11:29:35;23.10;98.50
20735;DHT22;10528;52.124;5.196;2022-07-06T11:32:07;23.30;99.30
20735;DHT22;10528;52.124;5.196;2022-07-06T11:34:43;23.30;99.50
20735;DHT22;10528;52.124;5.196;2022-07-06T11:37:13;23.30;97.80
20735;DHT22;10528;52.124;5.196;2022-07-06T11:39:43;23.10;97.50
20735;DHT22;10528;52.124;5.196;2022-07-06T11:42:14;23.30;98.00
20735;DHT22;10528;52.124;5.196;2022-07-06T11:44:43;23.30;98.30
20735;DHT22;10528;52.124;5.196;2022-07-06T11:47:12;23.30;97.70
20735;DHT22;10528;52.124;5.196;2022-07-06T11:49:49;23.50;97.10
20735;DHT22;10528;52.124;5.196;2022-07-06T11:52:17;23.10;95.00
20735;DHT22;10528;52.124;5.196;2022-07-06T11:54:44;23.20;97.60
20735;DHT22;10528;52.124;5.196;2022-07-06T11:57:11;23.30;97.80
20735;DHT22;10528;52.124;5.196;2022-07-06T11:59:40;23.30;96.00
20735;DHT22;10528;52.124;5.196;2022-07-06T12:02:14;23.30;95.80
20735;DHT22;10528;52.124;5.196;2022-07-06T12:04:43;23.30;97.00
20735;DHT22;10528;52.124;5.196;2022-07-06T12:07:14;23.40;97.70
20735;DHT22;10528;52.124;5.196;2022-07-06T12:09:44;23.40;93.90
20735;DHT22;10528;52.124;5.196;2022-07-06T12:12:12;23.50;96.80
20735;DHT22;10528;52.124;5.196;2022-07-06T12:14:41;23.40;97.50
20735;DHT22;10528;52.124;5.196;2022-07-06T12:17:09;23.40;96.10
20735;DHT22;10528;52.124;5.196;2022-07-06T12:19:38;23.20;96.30
20735;DHT22;10528;52.124;5.196;2022-07-06T12:22:06;23.10;95.60
20735;DHT22;10528;52.124;5.196;2022-07-06T12:24:35;23.20;97.40
20735;DHT22;10528;52.124;5.196;2022-07-06T12:27:17;23.30;97.50
20735;DHT22;10528;52.124;5.196;2022-07-06T12:29:46;23.40;97.70
20735;DHT22;10528;52.124;5.196;2022-07-06T12:32:18;23.30;97.10
20735;DHT22;10528;52.124;5.196;2022-07-06T12:35:03;23.30;97.30
20735;DHT22;10528;52.124;5.196;2022-07-06T12:37:33;23.40;96.90
20735;DHT22;10528;52.124;5.196;2022-07-06T12:40:01;23.40;97.20
20735;DHT22;10528;52.124;5.196;2022-07-06T12:42:48;23.30;97.10
20735;DHT22;10528;52.124;5.196;2022-07-06T12:45:16;23.40;95.70
20735;DHT22;10528;52.124;5.196;2022-07-06T12:48:00;23.50;97.10
20735;DHT22;10528;52.124;5.196;2022-07-06T12:50:37;23.50;96.00
20735;DHT22;10528;52.124;5.196;2022-07-06T12:53:06;23.40;96.50
20735;DHT22;10528;52.124;5.196;2022-07-06T12:56:11;23.20;95.70
20735;DHT22;10528;52.124;5.196;2022-07-06T12:58:39;23.40;95.90
20735;DHT22;10528;52.124;5.196;2022-07-06T13:01:06;23.40;96.20
20735;DHT22;10528;52.124;5.196;2022-07-06T13:03:40;23.50;95.50
20735;DHT22;10528;52.124;5.196;2022-07-06T13:06:07;23.50;96.80
20735;DHT22;10528;52.124;5.196;2022-07-06T13:08:34;23.50;96.10
20735;DHT22;10528;52.124;5.196;2022-07-06T13:11:01;23.60;97.10
20735;DHT22;10528;52.124;5.196;2022-07-06T13:13:28;23.70;96.60
20735;DHT22;10528;52.124;5.196;2022-07-06T13:15:55;23.70;96.20
20735;DHT22;10528;52.124;5.196;2022-07-06T13:18:23;23.70;97.00
20735;DHT22;10528;52.124;5.196;2022-07-06T13:20:50;23.70;96.70
20735;DHT22;10528;52.124;5.196;2022-07-06T13:23:17;23.70;96.80
20735;DHT22;10528;52.124;5.196;2022-07-06T13:25:44;23.70;96.50
20735;DHT22;10528;52.124;5.196;2022-07-06T13:28:10;23.80;97.30
20735;DHT22;10528;52.124;5.196;2022-07-06T13:30:37;23.80;96.30
20735;DHT22;10528;52.124;5.196;2022-07-06T13:33:04;23.80;96.90
20735;DHT22;10528;52.124;5.196;2022-07-06T13:35:32;23.70;97.00
20735;DHT22;10528;52.124;5.196;2022-07-06T13:37:58;23.70;97.00
20735;DHT22;10528;52.124;5.196;2022-07-06T13:40:26;23.80;96.90
20735;DHT22;10528;52.124;5.196;2022-07-06T13:42:53;23.70;95.90
20735;DHT22;10528;52.124;5.196;2022-07-06T13:45:21;23.70;96.30
20735;DHT22;10528;52.124;5.196;2022-07-06T13:47:48;23.70;96.90
20735;DHT22;10528;52.124;5.196;2022-07-06T13:50:15;23.60;96.20
20735;DHT22;10528;52.124;5.196;2022-07-06T13:52:41;23.60;96.50
20735;DHT22;10528;52.124;5.196;2022-07-06T13:55:08;23.60;96.40
20735;DHT22;10528;52.124;5.196;2022-07-06T13:57:36;23.70;97.20
20735;DHT22;10528;52.124;5.196;2022-07-06T14:00:05;23.70;97.20
20735;DHT22;10528;52.124;5.196;2022-07-06T14:02:34;23.60;97.30
20735;DHT22;10528;52.124;5.196;2022-07-06T14:05:01;23.50;97.10
20735;DHT22;10528;52.124;5.196;2022-07-06T14:07:28;23.40;97.30
20735;DHT22;10528;52.124;5.196;2022-07-06T14:09:55;23.40;97.00
20735;DHT22;10528;52.124;5.196;2022-07-06T14:12:22;23.40;97.00
20735;DHT22;10528;52.124;5.196;2022-07-06T14:14:50;23.30;97.70
20735;DHT22;10528;52.124;5.196;2022-07-06T14:17:17;23.20;97.40
20735;DHT22;10528;52.124;5.196;2022-07-06T14:19:44;23.20;97.80
20735;DHT22;10528;52.124;5.196;2022-07-06T14:22:11;23.10;97.20
20735;DHT22;10528;52.124;5.196;2022-07-06T14:24:38;23.10;97.40
20735;DHT22;10528;52.124;5.196;2022-07-06T14:27:05;23.10;98.30
20735;DHT22;10528;52.124;5.196;2022-07-06T14:29:32;23.10;98.00
20735;DHT22;10528;52.124;5.196;2022-07-06T14:31:59;23.10;98.40
20735;DHT22;10528;52.124;5.196;2022-07-06T14:34:26;23.10;98.00
20735;DHT22;10528;52.124;5.196;2022-07-06T14:36:53;22.90;98.00
20735;DHT22;10528;52.124;5.196;2022-07-06T14:39:19;23.10;98.70
20735;DHT22;10528;52.124;5.196;2022-07-06T14:41:46;23.00;98.30
20735;DHT22;10528;52.124;5.196;2022-07-06T14:44:13;23.10;98.40
20735;DHT22;10528;52.124;5.196;2022-07-06T14:46:40;23.10;98.70
20735;DHT22;10528;52.124;5.196;2022-07-06T14:49:07;23.00;98.90
20735;DHT22;10528;52.124;5.196;2022-07-06T14:51:34;22.90;98.60
20735;DHT22;10528;52.124;5.196;2022-07-06T14:54:01;22.90;98.90
20735;DHT22;10528;52.124;5.196;2022-07-06T14:56:28;22.80;99.00
20735;DHT22;10528;52.124;5.196;2022-07-06T14:58:55;23.00;99.00
20735;DHT22;10528;52.124;5.196;2022-07-06T15:01:42;22.90;99.90
20735;DHT22;10528;52.124;5.196;2022-07-06T15:04:09;22.80;99.90
20735;DHT22;10528;52.124;5.196;2022-07-06T15:06:37;22.90;99.90
20735;DHT22;10528;52.124;5.196;2022-07-06T15:09:22;23.00;99.90
20735;DHT22;10528;52.124;5.196;2022-07-06T15:11:50;23.10;99.90
20735;DHT22;10528;52.124;5.196;2022-07-06T15:14:18;22.90;99.90
20735;DHT22;10528;52.124;5.196;2022-07-06T15:16:45;23.00;99.90
20735;DHT22;10528;52.124;5.196;2022-07-06T15:19:12;23.00;99.90
20735;DHT22;10528;52.124;5.196;2022-07-06T15:21:39;23.00;99.90
20735;DHT22;10528;52.124;5.196;2022-07-06T15:24:06;23.00;99.90
20735;DHT22;10528;52.124;5.196;2022-07-06T15:26:33;22.90;99.90
20735;DHT22;10528;52.124;5.196;2022-07-06T15:29:00;22.90;99.90
20735;DHT22;10528;52.124;5.196;2022-07-06T15:31:27;22.80;99.90
20735;DHT22;10528;52.124;5.196;2022-07-06T15:33:54;22.70;99.90
20735;DHT22;10528;52.124;5.196;2022-07-06T15:36:21;22.60;99.90
20735;DHT22;10528;52.124;5.196;2022-07-06T15:38:48;22.70;99.90
20735;DHT22;10528;52.124;5.196;2022-07-06T15:41:15;22.80;99.90
20735;DHT22;10528;52.124;5.196;2022-07-06T15:43:42;22.90;99.90
20735;DHT22;10528;52.124;5.196;2022-07-06T15:46:11;22.90;99.90
20735;DHT22;10528;52.124;5.196;2022-07-06T15:48:38;22.80;99.90
20735;DHT22;10528;52.124;5.196;2022-07-06T15:51:05;22.80;99.90